Green Spring, WV (26722)

5:24 PM EDT on August 23, 2016 (GMT -0400)
Cheers Farm, Potomac South Branch Green Spring Wv | | Change Station

Elev 725 ft 39.49 °N, 78.59 °W | Updated 14 minutes ago

Clear
Clear
85.1 °F
Feels Like 85 °F
N
0.0
Wind Variable Wind from SW

Today
High -- | Low -- °F
--% Chance of Precip.
Yesterday
High -- | Low -- °F
Precip. -- in
Pressure 30.30 in
Visibility 10.0 miles
Clouds Clear
Heat Index 85 °F
Dew Point 59 °F
Humidity 42%
Rainfall 0.00 in
Snow Depth Not available.
6:34 AM 7:58 PM
Waning Gibbous, 64% visible
METAR KCBE 232101Z AUTO 10006KT 10SM CLR 29/15 A3030 RMK AO1
Pressure 30.30 in
Visibility 10.0 miles
Clouds Clear
Heat Index 85 °F
Dew Point 59 °F
Humidity 42%
Rainfall 0.00 in
Snow Depth Not available.
6:34 AM 7:58 PM
Waning Gibbous, 64% visible
METAR KCBE 232101Z AUTO 10006KT 10SM CLR 29/15 A3030 RMK AO1

10-Day Weather Forecast

Almanac

Astronomy

Aug. 23, 2016 Rise Set
Actual Time
Civil Twilight
Nautical Twilight
Astronomical Twilight
Moon
Length of Visible Light
Length of Day
Tomorrow will be .
, % of the Moon is Illuminated

Today's Extremes

State Highs State Lows

Community

WunderPhotos

Upload Photos

1,934,464 photos uploaded!

WunderBlog® & News

Nearby

Air Quality

  Air Quality AQ Index Pollutant
Not available.

Snow Depth

Station Depth Elevation

Earthquake Activity

City Distance Mag. Time & Date
Minimum magnitude displayed is 2.5.

Coastal Water Temperatures

Place Temperature

Stations

Nearby Weather Stations

Station Location Temp. Windchill Dew Point Humidity Wind Precip. Elev Updated Type
                   

Watches & Warnings

There are currently no watches in effect.